Time;durP1;ratioP1;P1;durP2;ratioP2;P2;SDS_P1;SDS_P2;PMS_P1;PMS_P2;Temp;Humidity;BMP_temperature;BMP_pressure;BME280_temperature;BME280_humidity;BME280_pressure;Samples;Min_cycle;Max_cycle;Signal;HPM_P1;HPM_P2
2022/08/18 00:01:43;;;;;;;4.15;3.72;;;;;;;17.59;100.00;95611.13;5051309;28;24446;-74
2022/08/18 00:04:11;;;;;;;5.70;3.90;;;;;;;17.56;100.00;95609.59;5048507;28;24862;-74
2022/08/18 00:06:37;;;;;;;6.32;4.25;;;;;;;17.72;100.00;95614.22;5042300;28;24445;-74
2022/08/18 00:09:07;;;;;;;4.07;3.63;;;;;;;17.76;100.00;95614.78;5051193;28;24500;-74
2022/08/18 00:11:37;;;;;;;4.65;3.83;;;;;;;17.85;100.00;95608.72;5049375;28;24443;-74
2022/08/18 00:14:04;;;;;;;4.88;4.00;;;;;;;17.81;100.00;95607.34;5049662;28;24442;-74
2022/08/18 00:16:30;;;;;;;5.47;3.45;;;;;;;17.82;100.00;95612.44;5041669;28;24992;-74
2022/08/18 00:18:57;;;;;;;5.28;4.20;;;;;;;17.93;100.00;95614.03;5051799;28;24810;-74
2022/08/18 00:21:23;;;;;;;4.40;3.97;;;;;;;17.87;100.00;95618.09;5049356;28;24443;-74
2022/08/18 00:23:50;;;;;;;6.13;4.05;;;;;;;17.84;100.00;95610.50;5051108;28;24442;-74
2022/08/18 00:26:18;;;;;;;6.30;4.07;;;;;;;17.80;100.00;95613.56;5039159;28;25019;-74
2022/08/18 00:28:44;;;;;;;5.10;4.03;;;;;;;17.77;100.00;95611.22;5043921;28;24852;-74
2022/08/18 00:31:11;;;;;;;4.97;3.63;;;;;;;17.83;100.00;95603.59;5046820;28;24440;-74
2022/08/18 00:33:37;;;;;;;5.70;3.73;;;;;;;17.73;100.00;95600.19;5051513;28;24564;-74
2022/08/18 00:36:04;;;;;;;4.82;3.85;;;;;;;17.71;100.00;95599.50;5044804;28;24438;-74
2022/08/18 00:38:31;;;;;;;5.90;3.90;;;;;;;17.78;100.00;95597.97;5051228;28;25012;-74
2022/08/18 00:40:57;;;;;;;4.60;3.97;;;;;;;17.69;100.00;95593.59;5051501;28;24435;-74
2022/08/18 00:43:31;;;;;;;5.20;3.47;;;;;;;17.61;100.00;95591.69;5044790;28;24450;-74
2022/08/18 00:45:58;;;;;;;5.32;4.00;;;;;;;17.60;100.00;95599.66;5048570;28;25073;-74
2022/08/18 00:48:24;;;;;;;8.97;4.23;;;;;;;17.56;100.00;95587.84;5049526;28;24531;-74
2022/08/18 00:50:53;;;;;;;7.78;4.15;;;;;;;17.65;100.00;95581.75;5049276;28;24439;-74
2022/08/18 00:53:28;;;;;;;4.63;4.22;;;;;;;17.67;100.00;95569.31;5044352;28;24438;-74
2022/08/18 00:55:56;;;;;;;4.88;3.70;;;;;;;17.60;100.00;95569.06;5048408;28;24493;-74
2022/08/18 00:58:28;;;;;;;4.63;3.60;;;;;;;17.59;100.00;95572.66;5050922;28;24431;-74
2022/08/18 01:00:54;;;;;;;4.95;3.78;;;;;;;17.65;100.00;95571.28;5050336;28;24988;-74
2022/08/18 01:03:23;;;;;;;3.93;3.53;;;;;;;17.65;100.00;95577.34;5050688;28;24475;-74
2022/08/18 01:05:56;;;;;;;4.07;3.55;;;;;;;17.70;100.00;95583.94;5047798;28;25048;-74
2022/08/18 01:08:25;;;;;;;5.60;3.97;;;;;;;17.57;100.00;95585.06;5050578;28;24446;-74
2022/08/18 01:10:51;;;;;;;4.43;3.72;;;;;;;17.42;100.00;95586.50;5047759;28;24463;-74
2022/08/18 01:13:18;;;;;;;5.53;3.90;;;;;;;17.37;100.00;95583.50;5045933;28;24447;-74
2022/08/18 01:15:46;;;;;;;4.93;4.05;;;;;;;17.30;100.00;95580.59;5040059;28;24522;-74
2022/08/18 01:23:53;;;;;;;5.20;4.30;;;;;;;17.11;100.00;95581.47;5045215;28;25049;-74
2022/08/18 01:26:21;;;;;;;4.30;3.90;;;;;;;17.01;100.00;95578.06;5049400;28;24510;-74
2022/08/18 01:28:49;;;;;;;6.05;4.32;;;;;;;16.79;100.00;95571.34;5044867;28;24427;-74
2022/08/18 01:31:31;;;;;;;7.45;5.03;;;;;;;16.67;100.00;95567.19;5048978;28;24432;-74
2022/08/18 01:33:58;;;;;;;7.90;4.65;;;;;;;16.77;100.00;95565.44;5043948;28;25015;-74
2022/08/18 01:36:25;;;;;;;7.60;4.43;;;;;;;16.88;100.00;95562.66;5049211;28;24439;-74
2022/08/18 01:38:53;;;;;;;5.53;4.40;;;;;;;16.97;100.00;95554.94;5065970;28;24439;-74
2022/08/18 01:41:21;;;;;;;4.13;3.72;;;;;;;17.04;100.00;95553.41;5059482;28;24501;-74
2022/08/18 01:43:48;;;;;;;8.55;4.10;;;;;;;17.11;100.00;95547.47;5046970;28;24479;-74
2022/08/18 01:46:18;;;;;;;6.82;4.18;;;;;;;17.13;100.00;95549.94;5049927;28;24430;-74
2022/08/18 01:48:45;;;;;;;4.82;4.30;;;;;;;17.16;100.00;95547.84;5045406;28;24431;-74
2022/08/18 01:51:12;;;;;;;7.27;4.23;;;;;;;17.20;100.00;95545.78;5039606;28;25098;-74
2022/08/18 01:53:39;;;;;;;4.73;4.30;;;;;;;17.22;100.00;95550.91;5046121;28;24471;-74
2022/08/18 01:56:08;;;;;;;4.10;3.60;;;;;;;17.25;100.00;95548.00;5043845;28;24461;-74
2022/08/18 01:58:36;;;;;;;4.78;4.28;;;;;;;17.13;100.00;95542.94;5047117;28;24793;-74
2022/08/18 02:01:06;;;;;;;4.70;4.07;;;;;;;17.24;100.00;95551.56;5049358;28;24447;-74
2022/08/18 02:03:35;;;;;;;6.75;4.25;;;;;;;17.20;100.00;95548.41;5040896;28;24448;-74
2022/08/18 02:06:06;;;;;;;4.97;4.40;;;;;;;17.17;100.00;95552.16;5048766;28;24972;-74
2022/08/18 02:08:32;;;;;;;5.88;4.53;;;;;;;17.22;100.00;95549.09;5047089;28;24521;-74
2022/08/18 02:10:59;;;;;;;5.32;4.20;;;;;;;17.05;100.00;95555.06;5046244;28;24455;-74
2022/08/18 02:13:27;;;;;;;6.15;4.63;;;;;;;16.89;100.00;95547.78;5043657;28;24450;-74
2022/08/18 02:15:53;;;;;;;4.68;4.07;;;;;;;16.80;100.00;95544.25;5043986;28;25026;-74
2022/08/18 02:18:26;;;;;;;6.05;4.47;;;;;;;16.86;100.00;95553.31;5046501;28;24443;-74
2022/08/18 02:20:53;;;;;;;4.55;4.15;;;;;;;16.94;100.00;95548.19;5049571;28;25054;-74
2022/08/18 02:23:19;;;;;;;6.03;4.78;;;;;;;16.96;100.00;95545.44;5046102;28;24836;-74
2022/08/18 02:25:46;;;;;;;6.13;4.53;;;;;;;17.06;100.00;95551.50;5049805;28;24442;-74
2022/08/18 02:28:12;;;;;;;4.80;4.25;;;;;;;17.11;100.00;95551.88;5043629;28;24801;-73
2022/08/18 02:30:42;;;;;;;4.25;3.60;;;;;;;17.17;100.00;95546.09;5041478;28;24435;-74
2022/08/18 02:33:10;;;;;;;5.85;4.65;;;;;;;17.19;100.00;95538.91;5041159;28;24833;-74
2022/08/18 02:35:38;;;;;;;6.93;4.68;;;;;;;17.16;100.00;95541.81;5046931;28;24992;-73
2022/08/18 02:38:07;;;;;;;4.38;3.97;;;;;;;17.16;100.00;95542.63;5042209;28;24997;-75
2022/08/18 02:40:34;;;;;;;6.28;4.25;;;;;;;17.17;100.00;95541.69;5040414;28;24817;-74
2022/08/18 02:43:06;;;;;;;5.05;4.40;;;;;;;17.09;100.00;95541.56;5045141;28;24435;-74
2022/08/18 02:45:32;;;;;;;4.05;3.65;;;;;;;17.16;100.00;95544.41;5032585;28;24440;-73
2022/08/18 02:48:00;;;;;;;5.10;4.30;;;;;;;17.23;100.00;95542.06;5041065;28;24427;-74
2022/08/18 02:50:27;;;;;;;5.47;4.75;;;;;;;17.27;100.00;95548.66;5040920;28;25000;-75
2022/08/18 02:52:54;;;;;;;5.83;4.93;;;;;;;17.23;100.00;95550.75;5045154;28;24439;-74
2022/08/18 02:55:21;;;;;;;5.97;4.50;;;;;;;17.27;100.00;95541.63;5044214;28;24485;-73
2022/08/18 02:57:48;;;;;;;5.78;4.95;;;;;;;17.15;100.00;95532.31;5047112;28;24439;-74
2022/08/18 03:00:17;;;;;;;6.20;4.70;;;;;;;17.21;100.00;95538.78;5044949;28;24474;-74
2022/08/18 03:02:45;;;;;;;6.40;4.22;;;;;;;17.17;100.00;95527.78;5031805;28;24439;-73
2022/08/18 03:05:13;;;;;;;7.00;4.57;;;;;;;17.20;100.00;95522.22;5034605;28;24440;-74
2022/08/18 03:07:40;;;;;;;5.28;4.40;;;;;;;17.28;100.00;95505.81;5039058;28;25026;-74
2022/08/18 03:10:08;;;;;;;5.10;4.55;;;;;;;17.18;100.00;95503.25;5046087;28;24432;-76
2022/08/18 03:12:35;;;;;;;5.82;4.43;;;;;;;17.13;100.00;95497.59;5047119;28;25045;-76
2022/08/18 03:15:02;;;;;;;5.97;4.30;;;;;;;17.18;100.00;95485.75;5042724;28;24435;-74
2022/08/18 03:17:30;;;;;;;7.25;4.82;;;;;;;17.13;100.00;95477.50;5043707;28;24485;-75
2022/08/18 03:19:57;;;;;;;4.88;4.30;;;;;;;17.06;100.00;95476.44;5048339;28;24806;-74
2022/08/18 03:22:24;;;;;;;5.05;3.97;;;;;;;17.07;100.00;95477.25;5047669;28;24438;-74
2022/08/18 03:24:51;;;;;;;4.83;4.33;;;;;;;17.07;100.00;95479.88;5046368;28;24456;-74
2022/08/18 03:27:17;;;;;;;5.22;3.78;;;;;;;17.09;100.00;95485.78;5045324;28;24445;-74
2022/08/18 03:29:44;;;;;;;5.25;4.65;;;;;;;17.09;100.00;95491.00;5046984;28;24994;-74
2022/08/18 03:32:10;;;;;;;5.67;4.70;;;;;;;17.07;100.00;95483.31;5044846;28;25011;-74
2022/08/18 03:34:37;;;;;;;6.82;4.70;;;;;;;17.07;100.00;95493.78;5034779;28;24436;-74
2022/08/18 03:37:04;;;;;;;5.97;4.83;;;;;;;17.10;100.00;95495.28;5040830;28;24435;-74
2022/08/18 03:39:32;;;;;;;4.87;4.37;;;;;;;17.13;100.00;95490.59;5037473;28;24423;-74
2022/08/18 03:41:58;;;;;;;7.80;4.70;;;;;;;17.14;100.00;95491.41;5047088;28;24439;-73
2022/08/18 03:44:26;;;;;;;10.88;4.95;;;;;;;17.10;100.00;95488.25;5046203;28;24522;-74
2022/08/18 03:46:53;;;;;;;5.47;4.20;;;;;;;17.06;100.00;95486.91;5047108;28;24442;-74
2022/08/18 03:49:20;;;;;;;6.55;4.97;;;;;;;17.09;100.00;95491.84;5044947;28;24426;-74
2022/08/18 03:51:47;;;;;;;5.05;4.50;;;;;;;17.09;100.00;95491.84;5048768;28;24936;-74
2022/08/18 03:54:15;;;;;;;7.80;5.20;;;;;;;17.09;100.00;95493.63;5048109;28;24443;-74
2022/08/18 03:56:46;;;;;;;5.30;4.80;;;;;;;17.13;100.00;95484.50;5050667;28;24455;-73
2022/08/18 03:59:16;;;;;;;7.85;5.32;;;;;;;17.09;100.00;95486.63;5040340;28;24438;-73
2022/08/18 04:01:45;;;;;;;5.00;4.50;;;;;;;17.10;100.00;95482.22;5051686;28;24813;-73
2022/08/18 04:04:15;;;;;;;6.55;4.95;;;;;;;17.12;100.00;95481.06;5051910;28;24436;-73
2022/08/18 04:06:44;;;;;;;6.30;4.82;;;;;;;16.94;100.00;95493.25;5047005;28;24484;-73
2022/08/18 04:09:14;;;;;;;5.53;4.40;;;;;;;17.00;100.00;95491.88;5051921;28;24809;-73
2022/08/18 04:11:44;;;;;;;5.47;4.82;;;;;;;17.02;100.00;95492.53;5046682;28;24434;-73
2022/08/18 04:14:12;;;;;;;4.88;4.40;;;;;;;17.04;100.00;95475.75;5040484;28;24789;-73
2022/08/18 04:16:39;;;;;;;6.95;4.82;;;;;;;17.07;100.00;95480.69;5048023;28;24521;-74
2022/08/18 04:19:06;;;;;;;5.75;4.60;;;;;;;17.10;100.00;95480.41;5048799;28;24514;-74
2022/08/18 04:21:36;;;;;;;4.88;4.47;;;;;;;17.10;100.00;95485.66;5049125;28;24454;-74
2022/08/18 04:24:04;;;;;;;5.57;4.40;;;;;;;17.12;100.00;95481.06;5051146;28;24435;-74
2022/08/18 04:26:31;;;;;;;6.00;3.78;;;;;;;17.14;100.00;95489.63;5051119;28;24434;-74
2022/08/18 04:29:00;;;;;;;5.23;4.40;;;;;;;17.14;100.00;95492.25;5050006;28;25063;-74
2022/08/18 04:31:28;;;;;;;6.90;5.13;;;;;;;17.15;100.00;95491.25;5047215;28;24884;-74
2022/08/18 04:33:56;;;;;;;4.60;4.20;;;;;;;17.16;100.00;95500.75;5055235;28;24439;-74
2022/08/18 04:36:22;;;;;;;4.87;4.37;;;;;;;17.18;100.00;95505.88;5055287;28;24458;-74
2022/08/18 04:38:49;;;;;;;6.18;4.70;;;;;;;17.18;100.00;95519.78;5047933;28;24427;-74
2022/08/18 04:41:16;;;;;;;6.07;4.80;;;;;;;17.16;100.00;95521.69;5050026;28;25176;-74
2022/08/18 04:43:42;;;;;;;6.22;5.05;;;;;;;17.13;100.00;95524.63;5047711;28;24431;-74
2022/08/18 04:46:11;;;;;;;6.13;5.13;;;;;;;17.13;100.00;95529.84;5039221;28;24439;-74
2022/08/18 04:48:40;;;;;;;7.07;5.27;;;;;;;17.03;100.00;95534.28;5046363;28;24471;-74
2022/08/18 04:51:10;;;;;;;5.72;5.13;;;;;;;16.91;100.00;95536.22;5036902;28;24808;-73
2022/08/18 04:53:45;;;;;;;6.95;5.10;;;;;;;16.92;100.00;95537.06;5051374;28;25000;-72
2022/08/18 04:56:19;;;;;;;5.77;4.80;;;;;;;16.99;100.00;95542.56;5045565;28;24954;-72
2022/08/18 04:58:51;;;;;;;5.60;4.80;;;;;;;17.02;100.00;95543.09;5036236;28;24937;-72
2022/08/18 05:01:20;;;;;;;5.57;5.03;;;;;;;17.14;100.00;95538.53;5041056;28;24458;-72
2022/08/18 05:03:48;;;;;;;8.52;5.05;;;;;;;17.28;100.00;95542.44;5045543;28;24538;-71
2022/08/18 05:06:14;;;;;;;5.47;4.70;;;;;;;17.21;100.00;95546.63;5040073;28;24493;-72
2022/08/18 05:08:41;;;;;;;5.30;4.60;;;;;;;17.20;100.00;95543.16;5037668;28;24438;-72
2022/08/18 05:11:08;;;;;;;6.90;5.43;;;;;;;17.19;100.00;95546.75;5046424;28;24436;-72
2022/08/18 05:13:34;;;;;;;4.93;4.43;;;;;;;17.20;100.00;95544.97;5049874;28;24443;-74
2022/08/18 05:16:02;;;;;;;5.45;4.95;;;;;;;17.25;100.00;95548.00;5044997;28;24431;-73
2022/08/18 05:18:31;;;;;;;5.90;5.25;;;;;;;17.21;100.00;95551.88;5045363;28;24485;-73
2022/08/18 05:20:58;;;;;;;6.65;5.13;;;;;;;17.26;100.00;95549.63;5045731;28;24452;-74
2022/08/18 05:23:26;;;;;;;6.13;4.93;;;;;;;17.29;100.00;95549.34;5048739;28;24471;-73
2022/08/18 05:25:57;;;;;;;5.50;5.00;;;;;;;17.36;100.00;95546.03;5045884;28;24434;-73
2022/08/18 05:28:24;;;;;;;5.53;4.90;;;;;;;17.38;100.00;95538.00;5048983;28;24435;-74
2022/08/18 05:30:51;;;;;;;6.50;4.90;;;;;;;17.42;100.00;95532.34;5045610;28;24423;-74
2022/08/18 05:33:17;;;;;;;6.33;4.93;;;;;;;17.45;100.00;95528.63;5048524;28;24458;-74
2022/08/18 05:35:51;;;;;;;6.80;5.40;;;;;;;17.50;100.00;95523.78;5045513;28;24995;-75
2022/08/18 05:38:30;;;;;;;5.70;5.05;;;;;;;17.43;100.00;95517.47;5042764;28;24538;-74
2022/08/18 05:41:09;;;;;;;7.55;5.90;;;;;;;17.43;100.00;95512.25;5045558;28;24588;-75
2022/08/18 05:43:37;;;;;;;5.80;5.07;;;;;;;17.54;100.00;95503.34;5048455;28;24454;-75
2022/08/18 05:46:06;;;;;;;5.75;5.25;;;;;;;17.69;100.00;95508.94;5039563;28;24993;-74
2022/08/18 05:48:34;;;;;;;5.20;4.68;;;;;;;17.70;100.00;95506.19;5043797;28;24439;-75
2022/08/18 05:51:12;;;;;;;5.28;4.78;;;;;;;17.71;100.00;95507.81;5045527;28;25000;-74
2022/08/18 05:56:46;;;;;;;4.90;4.40;;;;;;;17.66;100.00;95494.34;5045632;28;24450;-75
2022/08/18 05:59:20;;;;;;;5.20;4.38;;;;;;;17.73;100.00;95492.78;5047470;28;24836;-75
2022/08/18 06:01:53;;;;;;;5.60;4.72;;;;;;;17.84;100.00;95499.66;5051285;28;25016;-74
2022/08/18 06:04:29;;;;;;;4.90;4.43;;;;;;;18.01;100.00;95498.84;5054104;28;24446;-74
2022/08/18 06:07:02;;;;;;;5.32;4.57;;;;;;;18.04;100.00;95498.53;5043162;28;24439;-74
2022/08/18 06:09:35;;;;;;;5.60;4.50;;;;;;;18.15;100.00;95502.75;5035531;28;24432;-74
2022/08/18 06:12:13;;;;;;;6.30;4.72;;;;;;;18.07;100.00;95500.88;5046846;28;24493;-74
2022/08/18 06:14:40;;;;;;;4.70;3.92;;;;;;;17.93;100.00;95498.75;5045656;28;24442;-74
2022/08/18 06:17:22;;;;;;;4.90;3.78;;;;;;;18.00;100.00;95505.06;5042286;28;24489;-74
2022/08/18 06:19:57;;;;;;;4.00;3.13;;;;;;;17.93;100.00;95509.25;5049791;28;24431;-74
2022/08/18 06:22:36;;;;;;;5.78;3.65;;;;;;;18.01;100.00;95501.47;5044742;28;24802;-73
2022/08/18 06:25:14;;;;;;;4.07;3.55;;;;;;;18.03;100.00;95511.81;5048714;28;24545;-75
2022/08/18 06:27:54;;;;;;;4.22;3.63;;;;;;;18.05;100.00;95515.09;5046763;28;24431;-74
2022/08/18 06:30:26;;;;;;;3.45;3.10;;;;;;;18.23;100.00;95521.16;5038354;28;25077;-74
2022/08/18 06:33:08;;;;;;;4.03;3.53;;;;;;;18.41;100.00;95536.91;5045576;28;24790;-74
2022/08/18 06:35:38;;;;;;;4.82;3.78;;;;;;;18.23;100.00;95529.03;5045011;28;24790;-74
2022/08/18 06:41:04;;;;;;;6.75;3.60;;;;;;;18.23;100.00;95525.59;5045157;28;24509;-74
2022/08/18 06:43:32;;;;;;;3.95;3.55;;;;;;;18.30;100.00;95526.63;5048309;28;24797;-74
2022/08/18 06:45:59;;;;;;;5.32;3.70;;;;;;;18.29;100.00;95532.88;5041475;28;24428;-74
2022/08/18 06:48:32;;;;;;;4.20;3.80;;;;;;;18.21;100.00;95523.13;5047386;28;24434;-74
2022/08/18 06:51:02;;;;;;;4.82;3.92;;;;;;;18.18;100.00;95526.03;5045076;28;24426;-74
2022/08/18 06:53:52;;;;;;;5.53;3.75;;;;;;;18.17;100.00;95532.25;5045157;28;24790;-74
2022/08/18 06:56:25;;;;;;;5.10;3.90;;;;;;;18.17;100.00;95528.78;5034422;28;24442;-74
2022/08/18 06:58:54;;;;;;;4.28;3.88;;;;;;;18.07;100.00;95534.13;5039219;28;24526;-74
2022/08/18 07:01:22;;;;;;;4.57;4.00;;;;;;;18.02;100.00;95542.44;5045668;28;24447;-74
2022/08/18 07:03:53;;;;;;;4.25;3.88;;;;;;;18.05;100.00;95546.53;5038134;28;24439;-74
2022/08/18 07:06:31;;;;;;;12.43;4.43;;;;;;;18.21;100.00;95554.59;5042071;28;24503;-73
2022/08/18 07:09:21;;;;;;;7.40;4.30;;;;;;;18.15;100.00;95552.53;5047838;28;24443;-74
2022/08/18 07:12:03;;;;;;;4.45;4.03;;;;;;;18.24;100.00;95563.94;5046344;28;24995;-74
2022/08/18 07:14:31;;;;;;;5.25;4.57;;;;;;;18.30;100.00;95568.59;5043599;28;24459;-73
2022/08/18 07:17:09;;;;;;;4.90;4.40;;;;;;;18.31;100.00;95572.84;5049262;28;24797;-74
2022/08/18 07:19:36;;;;;;;5.25;4.65;;;;;;;18.29;100.00;95580.06;5039044;28;24444;-74
2022/08/18 07:22:06;;;;;;;4.90;4.43;;;;;;;18.32;100.00;95585.81;5043191;28;25051;-75
2022/08/18 07:24:39;;;;;;;5.00;4.38;;;;;;;18.37;100.00;95588.00;5047082;28;24470;-74
2022/08/18 07:27:09;;;;;;;6.00;4.90;;;;;;;18.27;100.00;95592.47;5050392;28;24434;-74
2022/08/18 07:29:38;;;;;;;7.67;4.70;;;;;;;18.31;100.00;95578.09;5066865;28;24423;-74
2022/08/18 07:32:09;;;;;;;6.07;4.45;;;;;;;18.34;100.00;95583.03;5058679;28;24846;-74
2022/08/18 07:34:40;;;;;;;5.10;4.60;;;;;;;18.37;100.00;95573.09;5049012;28;24495;-75
2022/08/18 07:37:12;;;;;;;8.00;4.60;;;;;;;18.36;100.00;95573.25;5049137;28;24438;-74
2022/08/18 07:39:45;;;;;;;9.75;5.05;;;;;;;18.40;100.00;95571.16;5037260;28;25057;-74
2022/08/18 07:42:17;;;;;;;8.50;5.22;;;;;;;18.28;100.00;95570.53;5053018;28;24447;-74
2022/08/18 07:44:50;;;;;;;7.35;5.45;;;;;;;18.19;100.00;95579.28;5048203;28;25071;-74
2022/08/18 07:47:22;;;;;;;5.95;4.85;;;;;;;18.24;100.00;95585.72;5045244;28;24501;-74
2022/08/18 07:49:48;;;;;;;5.07;4.57;;;;;;;18.26;100.00;95588.22;5047873;28;24431;-74
2022/08/18 07:52:22;;;;;;;6.03;4.70;;;;;;;18.23;100.00;95584.06;5053787;28;24798;-75
2022/08/18 07:55:03;;;;;;;6.13;5.32;;;;;;;18.19;100.00;95577.47;5058381;28;24443;-74
2022/08/18 07:57:43;;;;;;;6.18;5.07;;;;;;;18.32;100.00;95559.59;5043959;28;24467;-74
2022/08/18 08:00:18;;;;;;;5.53;4.78;;;;;;;18.65;100.00;95557.28;5053025;28;24420;-74
2022/08/18 08:02:53;;;;;;;5.67;5.00;;;;;;;18.76;100.00;95562.34;5052617;28;24522;-75
2022/08/18 08:05:35;;;;;;;5.70;4.63;;;;;;;18.72;100.00;95571.44;5041373;28;24443;-75
2022/08/18 08:08:11;;;;;;;5.43;4.80;;;;;;;18.50;100.00;95571.88;5050364;28;24435;-75
2022/08/18 08:10:48;;;;;;;6.57;5.07;;;;;;;18.49;100.00;95571.06;5044161;28;24789;-75
2022/08/18 08:13:23;;;;;;;6.07;5.25;;;;;;;18.68;100.00;95577.13;5038322;28;24481;-75
2022/08/18 08:16:00;;;;;;;5.93;5.20;;;;;;;18.76;100.00;95587.72;5051723;28;25035;-75
2022/08/18 08:18:36;;;;;;;6.90;5.63;;;;;;;18.70;100.00;95578.63;5049007;28;24435;-75
2022/08/18 08:21:09;;;;;;;6.40;5.80;;;;;;;18.64;100.00;95573.97;5052130;28;24466;-75
2022/08/18 08:23:44;;;;;;;6.70;5.30;;;;;;;18.63;100.00;95573.16;5049145;28;24999;-76
2022/08/18 08:26:30;;;;;;;7.00;6.30;;;;;;;18.58;100.00;95575.44;5048428;28;24432;-74
2022/08/18 08:29:08;;;;;;;6.50;5.90;;;;;;;18.73;100.00;95582.81;5046691;28;24439;-74
2022/08/18 08:31:45;;;;;;;9.73;5.70;;;;;;;18.85;100.00;95581.59;5045824;28;24793;-74
2022/08/18 08:34:16;;;;;;;8.35;6.03;;;;;;;18.84;100.00;95579.94;5043478;28;24969;-74
2022/08/18 08:36:46;;;;;;;7.32;6.40;;;;;;;18.65;100.00;95580.06;5045963;28;24822;-74
2022/08/18 08:39:17;;;;;;;7.07;6.40;;;;;;;18.77;100.00;95573.66;5051347;28;24703;-74
2022/08/18 08:41:50;;;;;;;6.53;5.93;;;;;;;18.76;100.00;95580.69;5045780;28;25067;-74
2022/08/18 08:44:22;;;;;;;8.50;6.85;;;;;;;18.60;100.00;95581.31;5038549;28;24470;-75
2022/08/18 08:46:55;;;;;;;8.68;6.55;;;;;;;18.52;100.00;95575.19;5051139;28;25006;-75
2022/08/18 08:49:34;;;;;;;7.03;6.40;;;;;;;18.58;100.00;95567.56;5049273;28;24513;-75
2022/08/18 08:52:05;;;;;;;7.93;6.60;;;;;;;18.65;100.00;95570.41;5046296;28;24446;-75
2022/08/18 08:54:41;;;;;;;7.88;6.70;;;;;;;18.58;100.00;95569.34;5049486;28;24447;-75
2022/08/18 08:57:11;;;;;;;7.00;6.40;;;;;;;18.77;100.00;95571.03;5046325;28;24439;-74
2022/08/18 08:59:39;;;;;;;8.07;6.82;;;;;;;18.91;100.00;95565.25;5049445;28;24440;-75
2022/08/18 09:02:25;;;;;;;10.15;7.07;;;;;;;19.09;100.00;95563.38;5043722;28;24534;-75
2022/08/18 09:05:00;;;;;;;9.57;6.82;;;;;;;19.31;100.00;95542.84;5048440;28;24443;-75
2022/08/18 09:07:44;;;;;;;8.40;7.28;;;;;;;19.59;100.00;95517.22;5047527;28;24450;-74
2022/08/18 09:10:49;;;;;;;7.60;6.90;;;;;;;19.85;100.00;95519.00;5050606;28;24431;-74
2022/08/18 09:13:41;;;;;;;13.50;6.70;;;;;;;20.03;100.00;95511.81;5045455;28;24432;-72
2022/08/18 09:16:20;;;;;;;8.00;7.13;;;;;;;20.06;100.00;95499.19;5048440;28;24428;-73
2022/08/18 09:18:57;;;;;;;8.43;6.88;;;;;;;20.08;100.00;95499.00;5046521;28;24428;-72
2022/08/18 09:21:37;;;;;;;8.75;7.28;;;;;;;20.15;100.00;95510.53;5036083;28;24439;-72
2022/08/18 09:24:13;;;;;;;10.05;7.53;;;;;;;20.10;100.00;95520.72;5048531;28;24985;-73
2022/08/18 09:26:51;;;;;;;8.65;7.43;;;;;;;20.08;100.00;95522.66;5045438;28;24427;-72
2022/08/18 09:29:26;;;;;;;8.63;7.78;;;;;;;20.63;100.00;95521.28;5043383;28;25285;-72
2022/08/18 09:32:29;;;;;;;7.60;6.85;;;;;;;20.52;100.00;95527.69;5045360;28;24529;-75
2022/08/18 09:35:18;;;;;;;9.80;7.40;;;;;;;20.72;100.00;95522.91;5049242;28;24436;-73
2022/08/18 09:41:30;;;;;;;7.90;7.10;;;;;;;20.97;100.00;95523.72;5046653;28;25006;-73
2022/08/18 09:43:35;;;;;;;7.18;6.47;;;;;;;21.72;100.00;95532.13;5040885;28;24492;-72
2022/08/18 09:46:05;;;;;;;10.52;6.88;;;;;;;21.34;100.00;95540.81;5050556;28;24984;-72
2022/08/18 09:48:34;;;;;;;6.63;5.90;;;;;;;21.55;100.00;95537.66;5042091;28;24442;-72
2022/08/18 09:51:19;;;;;;;7.17;6.53;;;;;;;21.65;100.00;95540.88;5048992;28;24492;-72
2022/08/18 09:54:19;;;;;;;7.07;6.35;;;;;;;21.69;100.00;95550.94;5046388;28;24497;-72
2022/08/18 09:57:17;;;;;;;6.85;6.15;;;;;;;21.68;100.00;95561.63;5045455;28;24431;-72
2022/08/18 09:59:58;;;;;;;6.57;5.88;;;;;;;21.67;100.00;95557.38;5046050;28;24433;-72
2022/08/18 10:03:11;;;;;;;6.95;6.03;;;;;;;22.00;100.00;95547.50;5043674;28;24549;-74
2022/08/18 10:05:41;;;;;;;9.65;6.72;;;;;;;22.46;100.00;95550.25;5047403;28;24442;-73
2022/08/18 10:08:32;;;;;;;7.95;6.97;;;;;;;22.34;100.00;95546.38;5050660;28;24436;-73
2022/08/18 10:11:18;;;;;;;7.05;6.13;;;;;;;22.06;100.00;95552.06;5048370;28;24435;-74
2022/08/18 10:13:55;;;;;;;7.53;6.72;;;;;;;22.15;100.00;95532.63;5046482;28;24443;-72
2022/08/18 10:16:28;;;;;;;6.28;5.68;;;;;;;21.97;100.00;95530.22;5037645;28;24786;-72
2022/08/18 10:19:09;;;;;;;11.63;5.75;;;;;;;21.78;100.00;95521.91;5057301;28;24431;-73
2022/08/18 10:22:09;;;;;;;7.03;5.95;;;;;;;21.79;100.00;95531.47;5059048;28;24482;-73
2022/08/18 10:24:44;;;;;;;6.72;6.13;;;;;;;21.94;100.00;95522.63;5045880;28;24440;-73
2022/08/18 10:27:27;;;;;;;11.45;7.03;;;;;;;21.56;100.00;95507.66;5051085;28;24961;-72
2022/08/18 10:29:57;;;;;;;7.65;6.85;;;;;;;21.47;100.00;95491.06;5047293;28;24431;-73
2022/08/18 10:32:45;;;;;;;9.55;7.05;;;;;;;21.25;100.00;95489.97;5050936;28;24420;-72
2022/08/18 10:35:52;;;;;;;7.45;6.75;;;;;;;21.45;100.00;95491.22;5043844;28;25039;-73
2022/08/18 10:38:36;;;;;;;9.55;7.85;;;;;;;21.22;100.00;95485.84;5047854;28;25000;-73
2022/08/18 10:41:07;;;;;;;10.38;7.50;;;;;;;21.42;100.00;95490.75;5046307;28;24793;-74
2022/08/18 10:43:41;;;;;;;8.77;7.43;;;;;;;21.39;100.00;95497.16;5051797;28;24846;-73
2022/08/18 10:46:16;;;;;;;7.32;6.63;;;;;;;21.27;100.00;95498.50;5036224;28;24825;-73
2022/08/18 10:48:43;;;;;;;11.02;8.38;;;;;;;21.24;100.00;95497.00;5049290;28;24907;-74
2022/08/18 10:51:18;;;;;;;7.28;6.57;;;;;;;21.43;100.00;95487.97;5042342;28;25000;-73
2022/08/18 10:53:54;;;;;;;8.60;7.63;;;;;;;21.34;100.00;95482.88;5048005;28;24493;-74
2022/08/18 10:56:29;;;;;;;8.37;7.43;;;;;;;21.17;100.00;95482.06;5049087;28;24423;-74
2022/08/18 10:59:19;;;;;;;9.32;7.60;;;;;;;21.34;100.00;95483.69;5052390;28;24431;-73
2022/08/18 11:02:00;;;;;;;8.52;7.43;;;;;;;21.79;100.00;95490.09;5048384;28;24805;-73
2022/08/18 11:04:30;;;;;;;14.88;8.45;;;;;;;21.23;100.00;95482.22;5044577;28;24435;-73
2022/08/18 11:07:07;;;;;;;10.45;8.15;;;;;;;21.42;100.00;95485.47;5052222;28;24439;-73
2022/08/18 11:09:35;;;;;;;12.35;9.05;;;;;;;21.32;100.00;95487.44;5049319;28;24575;-73
2022/08/18 11:12:03;;;;;;;9.05;8.15;;;;;;;21.46;100.00;95497.31;5052219;28;24424;-73
2022/08/18 11:14:58;;;;;;;11.32;8.52;;;;;;;21.41;100.00;95500.47;5047767;28;24438;-73
2022/08/18 11:17:39;;;;;;;9.77;8.77;;;;;;;20.95;100.00;95494.09;5046510;28;24438;-74
2022/08/18 11:20:09;;;;;;;12.85;8.82;;;;;;;21.70;100.00;95504.31;5048398;28;24489;-73
2022/08/18 11:22:36;;;;;;;10.70;8.50;;;;;;;22.04;100.00;95503.16;5052330;28;24541;-74
2022/08/18 11:25:20;;;;;;;9.27;8.40;;;;;;;21.76;100.00;95498.34;5049908;28;24458;-75
2022/08/18 11:27:47;;;;;;;10.63;8.55;;;;;;;21.83;100.00;95498.47;5053370;28;25019;-74
2022/08/18 11:30:14;;;;;;;12.55;8.88;;;;;;;21.76;100.00;95498.34;5044579;28;24424;-74
2022/08/18 11:32:42;;;;;;;11.57;8.40;;;;;;;21.56;100.00;95489.22;5049565;28;24427;-74
2022/08/18 11:35:13;;;;;;;8.40;7.60;;;;;;;22.07;100.00;95472.00;5045751;28;24538;-74
2022/08/18 11:37:45;;;;;;;9.63;7.53;;;;;;;22.27;99.04;95480.28;5052871;28;24782;-74
2022/08/18 11:40:36;;;;;;;7.90;7.07;;;;;;;22.34;99.79;95480.41;5050259;28;24424;-75
2022/08/18 11:43:11;;;;;;;10.80;7.85;;;;;;;22.51;97.54;95473.16;5051170;28;24558;-74
2022/08/18 11:45:51;;;;;;;8.35;7.47;;;;;;;22.74;95.43;95478.44;5039626;28;24859;-75
2022/08/18 11:48:23;;;;;;;8.45;7.07;;;;;;;22.83;93.50;95478.19;5042038;28;24424;-74
2022/08/18 11:51:00;;;;;;;8.05;7.15;;;;;;;22.31;95.58;95472.84;5050233;28;24477;-74
2022/08/18 11:53:38;;;;;;;9.13;7.40;;;;;;;22.29;95.48;95466.94;5047632;28;24438;-74
2022/08/18 11:56:16;;;;;;;8.82;7.53;;;;;;;22.44;93.77;95462.53;5050206;28;24431;-73
2022/08/18 11:58:45;;;;;;;10.00;7.40;;;;;;;22.65;92.62;95462.66;5053290;28;24522;-74
2022/08/18 12:01:30;;;;;;;9.13;6.70;;;;;;;22.73;95.56;95451.25;5050564;28;24505;-75
2022/08/18 12:03:58;;;;;;;8.90;7.78;;;;;;;22.96;94.63;95442.47;5045837;28;24470;-74